Time;durP1;ratioP1;P1;durP2;ratioP2;P2;SDS_P1;SDS_P2;PMS_P1;PMS_P2;Temp;Humidity;BMP_temperature;BMP_pressure;BME280_temperature;BME280_humidity;BME280_pressure;Samples;Min_cycle;Max_cycle;Signal;HPM_P1;HPM_P2
2021/12/10 00:01:59;;;;;;;;;;;;;;;3.48;93.19;99178.81;5024603;28;19965;-85
2021/12/10 00:04:29;;;;;;;;;;;;;;;3.49;93.17;99177.84;4963700;28;19923;-85
2021/12/10 00:06:56;;;;;;;;;;;;;;;3.51;93.00;99175.91;5002746;28;19945;-85
2021/12/10 00:09:24;;;;;;;;;;;;;;;3.45;92.83;99171.25;5026949;28;20249;-85
2021/12/10 00:11:55;;;;;;;;;;;;;;;3.49;92.91;99163.97;5029449;28;19921;-84
2021/12/10 00:14:26;;;;;;;;;;;;;;;3.46;92.65;99157.22;5044022;28;19952;-85
2021/12/10 00:16:51;;;;;;;;;;;;;;;3.46;92.59;99156.41;5024509;28;19921;-84
2021/12/10 00:21:49;;;;;;;;;;;;;;;3.40;92.28;99155.16;5025449;28;19928;-84
2021/12/10 00:24:16;;;;;;;;;;;;;;;3.39;92.44;99145.69;5028141;28;19921;-85
2021/12/10 00:26:41;;;;;;;;;;;;;;;3.41;92.09;99135.91;5045002;28;19945;-85
2021/12/10 00:29:07;;;;;;;;;;;;;;;3.42;92.39;99129.72;5019641;28;20367;-84
2021/12/10 00:34:05;;;;;;;;;;;;;;;3.39;92.19;99127.41;5019748;28;20016;-84
2021/12/10 00:36:31;;;;;;;;;;;;;;;3.37;92.57;99124.91;5017702;28;19922;-84
2021/12/10 00:38:59;;;;;;;;;;;;;;;3.46;92.02;99120.63;5028943;28;19936;-85
2021/12/10 00:41:25;;;;;;;;;;;;;;;3.40;92.23;99114.16;5020372;28;19918;-85
2021/12/10 00:43:50;;;;;;;;;;;;;;;3.43;92.11;99107.84;5021253;28;20004;-85
2021/12/10 00:46:16;;;;;;;;;;;;;;;3.46;92.06;99107.56;5037825;28;19921;-85
2021/12/10 00:48:41;;;;;;;;;;;;;;;3.46;92.06;99099.75;5024081;28;19933;-85
2021/12/10 00:51:08;;;;;;;;;;;;;;;3.45;91.72;99098.06;5028700;28;19921;-85
2021/12/10 00:53:34;;;;;;;;;;;;;;;3.47;91.55;99090.09;5048976;28;19929;-84
2021/12/10 00:55:59;;;;;;;;;;;;;;;3.41;91.80;99081.06;5027403;28;19917;-85
2021/12/10 00:58:25;;;;;;;;;;;;;;;3.43;91.74;99081.72;5014051;28;19929;-85
2021/12/10 01:00:53;;;;;;;;;;;;;;;3.47;91.80;99079.66;5021001;28;19922;-84
2021/12/10 01:03:20;;;;;;;;;;;;;;;3.48;91.13;99074.28;5047078;28;19932;-85
2021/12/10 01:05:47;;;;;;;;;;;;;;;3.48;90.90;99071.69;5029318;28;19949;-85
2021/12/10 01:08:12;;;;;;;;;;;;;;;3.42;91.31;99063.56;5022174;28;20443;-85
2021/12/10 01:10:40;;;;;;;;;;;;;;;3.39;91.22;99064.69;5042823;28;19922;-85
2021/12/10 01:13:08;;;;;;;;;;;;;;;3.40;91.26;99066.31;5028612;28;20063;-85
2021/12/10 01:15:52;;;;;;;;;;;;;;;3.34;91.19;99067.72;5024688;28;20052;-85
2021/12/10 01:23:58;;;;;;;;;;;;;;;3.20;91.48;99055.09;5007887;28;19985;-84
2021/12/10 01:26:52;;;;;;;;;;;;;;;3.16;91.03;99048.50;5021691;28;19925;-85
2021/12/10 01:29:23;;;;;;;;;;;;;;;3.07;91.32;99034.50;5025028;28;19925;-85
2021/12/10 01:31:50;;;;;;;;;;;;;;;3.02;90.67;99031.47;5024626;28;19921;-85
2021/12/10 01:34:15;;;;;;;;;;;;;;;3.00;90.73;99020.34;5023280;28;20097;-85
2021/12/10 01:36:41;;;;;;;;;;;;;;;2.93;90.39;99003.59;5054824;28;20000;-86
2021/12/10 01:39:08;;;;;;;;;;;;;;;2.81;91.15;99007.34;5046095;28;19922;-84
2021/12/10 01:41:38;;;;;;;;;;;;;;;2.75;91.17;99000.91;5030378;28;19925;-86
2021/12/10 01:44:14;;;;;;;;;;;;;;;2.79;90.73;99007.50;5029418;28;19932;-85
2021/12/10 01:46:40;;;;;;;;;;;;;;;2.74;90.78;99005.28;5031784;28;19924;-84
2021/12/10 01:49:06;;;;;;;;;;;;;;;2.76;90.46;98989.47;5021996;28;19943;-84
2021/12/10 01:51:33;;;;;;;;;;;;;;;2.67;90.42;98987.69;5042687;28;19996;-85
2021/12/10 01:54:02;;;;;;;;;;;;;;;2.64;90.62;98993.22;5043218;28;19984;-85
2021/12/10 01:56:29;;;;;;;;;;;;;;;2.60;90.78;98982.25;5019892;28;19936;-85
2021/12/10 01:58:55;;;;;;;;;;;;;;;2.48;90.91;98971.13;5030273;28;19949;-85
2021/12/10 02:01:31;;;;;;;;;;;;;;;2.44;91.03;98974.13;5028232;28;20187;-84
2021/12/10 02:03:57;;;;;;;;;;;;;;;2.28;91.30;98965.06;5028286;28;19925;-85
2021/12/10 02:06:22;;;;;;;;;;;;;;;2.26;91.39;98963.56;5023442;28;19995;-85
2021/12/10 02:08:48;;;;;;;;;;;;;;;2.18;91.56;98958.22;5032733;28;19953;-85
2021/12/10 02:11:14;;;;;;;;;;;;;;;2.13;91.38;98953.41;5022913;28;19952;-85
2021/12/10 02:13:39;;;;;;;;;;;;;;;2.07;91.70;98951.34;5022818;28;19956;-84
2021/12/10 02:16:05;;;;;;;;;;;;;;;2.07;91.44;98941.75;5026122;28;19925;-84
2021/12/10 02:18:30;;;;;;;;;;;;;;;2.05;91.25;98942.81;5033421;28;19928;-85
2021/12/10 02:21:02;;;;;;;;;;;;;;;2.04;91.27;98942.00;5033130;28;19936;-85
2021/12/10 02:23:33;;;;;;;;;;;;;;;2.00;91.17;98932.84;5033464;28;19921;-85
2021/12/10 02:26:01;;;;;;;;;;;;;;;1.90;91.86;98930.19;5040117;28;19921;-85
2021/12/10 02:28:26;;;;;;;;;;;;;;;1.90;91.54;98919.75;5037322;28;19929;-85
2021/12/10 02:30:54;;;;;;;;;;;;;;;1.88;91.46;98915.66;5033308;28;20119;-85
2021/12/10 02:33:20;;;;;;;;;;;;;;;1.82;91.55;98905.78;5028591;28;20018;-85
2021/12/10 02:35:45;;;;;;;;;;;;;;;1.80;91.54;98897.28;5034551;28;19921;-86
2021/12/10 02:38:10;;;;;;;;;;;;;;;1.72;91.74;98884.09;5035887;28;19967;-85
2021/12/10 02:40:36;;;;;;;;;;;;;;;1.67;92.60;98887.13;5035238;28;19922;-85
2021/12/10 02:43:04;;;;;;;;;;;;;;;1.64;92.74;98887.38;5044400;28;20191;-85
2021/12/10 02:45:29;;;;;;;;;;;;;;;1.70;91.88;98872.03;5030494;28;19945;-85
2021/12/10 02:47:55;;;;;;;;;;;;;;;1.69;91.66;98870.41;5050051;28;19992;-85
2021/12/10 02:50:24;;;;;;;;;;;;;;;1.74;91.36;98866.53;5051738;28;20375;-85
2021/12/10 02:52:49;;;;;;;;;;;;;;;1.66;91.60;98872.44;5029623;28;19944;-84
2021/12/10 02:55:16;;;;;;;;;;;;;;;1.61;91.42;98872.03;5023408;28;19940;-85
2021/12/10 02:57:45;;;;;;;;;;;;;;;1.53;92.93;98867.50;5027086;28;19933;-85
2021/12/10 03:00:13;;;;;;;;;;;;;;;1.46;92.63;98859.38;5025292;28;19987;-85
2021/12/10 03:02:39;;;;;;;;;;;;;;;1.37;94.28;98859.38;5032136;28;19928;-85
2021/12/10 03:05:06;;;;;;;;;;;;;;;1.22;94.53;98859.75;5023579;28;19921;-85
2021/12/10 03:07:31;;;;;;;;;;;;;;;1.13;94.61;98851.91;5037745;28;19933;-84
2021/12/10 03:09:57;;;;;;;;;;;;;;;1.05;95.24;98844.78;5034746;28;20001;-84
2021/12/10 03:12:23;;;;;;;;;;;;;;;1.08;93.84;98834.09;5030674;28;19921;-85
2021/12/10 03:14:51;;;;;;;;;;;;;;;1.12;92.89;98829.44;5032044;28;19922;-85
2021/12/10 03:17:23;;;;;;;;;;;;;;;1.13;92.67;98831.09;5023119;28;19921;-86
2021/12/10 03:19:49;;;;;;;;;;;;;;;1.15;92.42;98829.19;5028820;28;19922;-85
2021/12/10 03:22:15;;;;;;;;;;;;;;;1.15;92.37;98823.97;5026092;28;19928;-86
2021/12/10 03:24:40;;;;;;;;;;;;;;;1.16;92.29;98813.41;5036087;28;19926;-85
2021/12/10 03:27:07;;;;;;;;;;;;;;;1.08;92.89;98802.84;5023368;28;20182;-85
2021/12/10 03:29:34;;;;;;;;;;;;;;;1.06;93.60;98800.38;5036814;28;19933;-85
2021/12/10 03:32:00;;;;;;;;;;;;;;;1.11;92.59;98796.56;5053862;28;19959;-85
2021/12/10 03:34:26;;;;;;;;;;;;;;;1.11;92.55;98796.56;5047777;28;19936;-85
2021/12/10 03:36:52;;;;;;;;;;;;;;;1.06;92.53;98787.38;5021461;28;19952;-85
2021/12/10 03:39:19;;;;;;;;;;;;;;;1.11;92.23;98783.53;5023240;28;19926;-85
2021/12/10 03:41:45;;;;;;;;;;;;;;;1.13;92.00;98766.00;5046784;28;19968;-85
2021/12/10 03:44:10;;;;;;;;;;;;;;;1.10;91.94;98767.09;5036300;28;19987;-85
2021/12/10 03:46:36;;;;;;;;;;;;;;;1.09;92.07;98762.03;5016870;28;20013;-85
2021/12/10 03:49:04;;;;;;;;;;;;;;;1.03;92.50;98747.78;5018856;28;19926;-85
2021/12/10 03:51:31;;;;;;;;;;;;;;;0.98;92.86;98745.59;5041538;28;19948;-86
2021/12/10 03:53:57;;;;;;;;;;;;;;;0.95;92.95;98727.59;5049833;28;19967;-85
2021/12/10 03:56:24;;;;;;;;;;;;;;;0.93;93.15;98732.16;5040599;28;19984;-86
2021/12/10 03:58:49;;;;;;;;;;;;;;;0.98;92.61;98719.56;5020894;28;19922;-85
2021/12/10 04:01:16;;;;;;;;;;;;;;;1.02;92.61;98720.09;5032772;28;20072;-86
2021/12/10 04:03:42;;;;;;;;;;;;;;;1.06;92.78;98711.06;5035011;28;19927;-86
2021/12/10 04:06:08;;;;;;;;;;;;;;;1.01;93.41;98710.66;5021690;28;20274;-86
2021/12/10 04:08:33;;;;;;;;;;;;;;;0.96;93.41;98705.84;5018681;28;19930;-85
2021/12/10 04:10:59;;;;;;;;;;;;;;;0.85;94.22;98700.75;5031119;28;19917;-85
2021/12/10 04:13:25;;;;;;;;;;;;;;;0.79;95.15;98698.72;5029920;28;19920;-85
2021/12/10 04:15:50;;;;;;;;;;;;;;;0.79;94.67;98694.31;5029291;28;19935;-85
2021/12/10 04:18:16;;;;;;;;;;;;;;;0.70;95.50;98694.31;5026830;28;19917;-85
2021/12/10 04:20:42;;;;;;;;;;;;;;;0.50;96.24;98694.28;5044758;28;19921;-86
2021/12/10 04:23:09;;;;;;;;;;;;;;;0.46;96.04;98702.47;5022085;28;19978;-86
2021/12/10 04:25:34;;;;;;;;;;;;;;;0.52;95.40;98702.75;5023558;28;19960;-86
2021/12/10 04:28:01;;;;;;;;;;;;;;;0.53;95.60;98691.41;5045734;28;19937;-85
2021/12/10 04:30:27;;;;;;;;;;;;;;;0.45;96.07;98696.44;5023566;28;20017;-86
2021/12/10 04:32:52;;;;;;;;;;;;;;;0.31;96.28;98695.03;5034840;28;19952;-86
2021/12/10 04:35:18;;;;;;;;;;;;;;;0.30;96.33;98687.34;5034866;28;19921;-86
2021/12/10 04:37:44;;;;;;;;;;;;;;;0.22;96.58;98679.41;5017257;28;19925;-85
2021/12/10 04:40:10;;;;;;;;;;;;;;;0.25;96.29;98679.13;5021055;28;20007;-86
2021/12/10 04:42:35;;;;;;;;;;;;;;;0.25;95.73;98668.75;5043748;28;20383;-85
2021/12/10 04:45:01;;;;;;;;;;;;;;;0.28;94.78;98661.47;5044831;28;20039;-86
2021/12/10 04:47:27;;;;;;;;;;;;;;;0.22;95.99;98658.63;5021253;28;19953;-85
2021/12/10 04:49:53;;;;;;;;;;;;;;;0.23;95.64;98658.47;5031169;28;20410;-85
2021/12/10 04:52:19;;;;;;;;;;;;;;;0.15;96.80;98658.31;5027019;28;19968;-86
2021/12/10 04:54:45;;;;;;;;;;;;;;;0.11;96.60;98655.13;5025850;28;19927;-85
2021/12/10 04:57:10;;;;;;;;;;;;;;;0.29;95.17;98654.53;5020884;28;19960;-86
2021/12/10 04:59:37;;;;;;;;;;;;;;;0.53;95.42;98649.78;5036878;28;19932;-86
2021/12/10 05:02:04;;;;;;;;;;;;;;;0.67;93.70;98646.00;5042635;28;19929;-85
2021/12/10 05:04:30;;;;;;;;;;;;;;;0.78;93.41;98639.81;5030917;28;19967;-85
2021/12/10 05:06:56;;;;;;;;;;;;;;;0.81;92.76;98635.19;5018937;28;19932;-85
2021/12/10 05:09:21;;;;;;;;;;;;;;;0.90;92.19;98627.50;5024025;28;19922;-84
2021/12/10 05:11:47;;;;;;;;;;;;;;;1.01;90.64;98622.97;5025684;28;20412;-84
2021/12/10 05:14:13;;;;;;;;;;;;;;;1.08;90.58;98617.25;5046159;28;19917;-85
2021/12/10 05:16:43;;;;;;;;;;;;;;;1.13;90.34;98612.44;5031236;28;19928;-85
2021/12/10 05:19:09;;;;;;;;;;;;;;;1.20;89.37;98598.72;5022182;28;20378;-85
2021/12/10 05:21:35;;;;;;;;;;;;;;;1.17;89.37;98593.78;5030684;28;20443;-85
2021/12/10 05:24:02;;;;;;;;;;;;;;;1.17;89.24;98595.56;5021334;28;19944;-85
2021/12/10 05:26:27;;;;;;;;;;;;;;;1.22;89.35;98593.38;5021662;28;19929;-86
2021/12/10 05:28:53;;;;;;;;;;;;;;;1.28;88.55;98587.59;5028914;28;20086;-85
2021/12/10 05:31:19;;;;;;;;;;;;;;;1.10;90.37;98581.44;5027224;28;19917;-86
2021/12/10 05:33:44;;;;;;;;;;;;;;;1.05;89.73;98584.50;5018902;28;20405;-85
2021/12/10 05:36:09;;;;;;;;;;;;;;;1.06;89.39;98579.13;5031722;28;19917;-86
2021/12/10 05:38:35;;;;;;;;;;;;;;;0.94;90.45;98582.84;5027749;28;19922;-85
2021/12/10 05:41:01;;;;;;;;;;;;;;;0.68;91.76;98577.38;5035954;28;19918;-85
2021/12/10 05:43:27;;;;;;;;;;;;;;;0.41;93.13;98578.06;5017608;28;19922;-85
2021/12/10 05:45:52;;;;;;;;;;;;;;;0.37;93.16;98568.88;5036374;28;19917;-85
2021/12/10 05:48:18;;;;;;;;;;;;;;;0.24;93.92;98558.75;5030654;28;19925;-84
2021/12/10 05:50:44;;;;;;;;;;;;;;;0.23;93.63;98557.09;5045607;28;19921;-85
2021/12/10 05:53:10;;;;;;;;;;;;;;;0.34;92.89;98569.16;5038218;28;19996;-85
2021/12/10 05:55:36;;;;;;;;;;;;;;;0.50;91.90;98553.84;5036127;28;20397;-85
2021/12/10 05:58:01;;;;;;;;;;;;;;;0.56;91.55;98545.50;5029882;28;19921;-86
2021/12/10 06:00:31;;;;;;;;;;;;;;;0.60;91.29;98544.25;5035457;28;20008;-85
2021/12/10 06:02:57;;;;;;;;;;;;;;;0.71;90.53;98530.28;5035512;28;19926;-85
2021/12/10 06:05:29;;;;;;;;;;;;;;;0.84;89.77;98520.41;5029502;28;19941;-85
2021/12/10 06:07:54;;;;;;;;;;;;;;;0.94;88.77;98511.78;5020852;28;19937;-85
2021/12/10 06:10:22;;;;;;;;;;;;;;;1.01;87.53;98502.44;5018767;28;19921;-85
2021/12/10 06:12:47;;;;;;;;;;;;;;;1.15;86.80;98495.97;5037019;28;19922;-84
2021/12/10 06:15:14;;;;;;;;;;;;;;;1.07;87.76;98494.06;5022121;28;19936;-86
2021/12/10 06:17:39;;;;;;;;;;;;;;;0.99;87.65;98486.97;5019568;28;19925;-85
2021/12/10 06:20:06;;;;;;;;;;;;;;;1.03;87.89;98488.34;5019820;28;19921;-86
2021/12/10 06:22:31;;;;;;;;;;;;;;;0.97;88.09;98486.28;5042949;28;19921;-86
2021/12/10 06:24:56;;;;;;;;;;;;;;;1.06;87.42;98480.22;5039925;28;20455;-85
2021/12/10 06:27:21;;;;;;;;;;;;;;;1.00;86.90;98479.97;5043565;28;19940;-85
2021/12/10 06:29:47;;;;;;;;;;;;;;;1.01;87.15;98482.44;5024590;28;19921;-85
2021/12/10 06:32:12;;;;;;;;;;;;;;;0.89;87.54;98467.97;5032928;28;20435;-85
2021/12/10 06:34:37;;;;;;;;;;;;;;;0.98;86.91;98477.53;5024647;28;20271;-85
2021/12/10 06:37:03;;;;;;;;;;;;;;;0.87;87.26;98464.69;5041808;28;19929;-85
2021/12/10 06:39:28;;;;;;;;;;;;;;;0.87;87.76;98461.25;5036909;28;19925;-85
2021/12/10 06:41:54;;;;;;;;;;;;;;;0.80;88.25;98455.78;5034406;28;19996;-85
2021/12/10 06:44:20;;;;;;;;;;;;;;;0.92;86.92;98456.44;5040161;28;19948;-85
2021/12/10 06:46:45;;;;;;;;;;;;;;;0.88;87.43;98447.28;5032251;28;19988;-86
2021/12/10 06:49:11;;;;;;;;;;;;;;;0.84;87.06;98437.16;5035131;28;20338;-85
2021/12/10 06:51:36;;;;;;;;;;;;;;;0.83;87.19;98425.13;5027697;28;19971;-85
2021/12/10 06:54:02;;;;;;;;;;;;;;;0.98;86.09;98427.28;5040589;28;19922;-85
2021/12/10 06:56:29;;;;;;;;;;;;;;;0.86;86.92;98413.63;5033403;28;19921;-85
2021/12/10 06:58:54;;;;;;;;;;;;;;;0.77;87.67;98417.06;5037266;28;19936;-86
2021/12/10 07:01:24;;;;;;;;;;;;;;;0.76;86.94;98428.41;5024242;28;19953;-85
2021/12/10 07:03:53;;;;;;;;;;;;;;;0.74;86.53;98418.16;5030830;28;19921;-85
2021/12/10 07:06:19;;;;;;;;;;;;;;;0.65;87.64;98406.00;5034817;28;19921;-85
2021/12/10 07:08:45;;;;;;;;;;;;;;;0.73;85.82;98400.91;5025327;28;19943;-85
2021/12/10 07:11:11;;;;;;;;;;;;;;;0.73;86.29;98395.69;5041900;28;19980;-85
2021/12/10 07:13:37;;;;;;;;;;;;;;;0.73;87.16;98389.69;5022404;28;19977;-85
2021/12/10 07:16:05;;;;;;;;;;;;;;;0.80;86.19;98383.78;5024832;28;19921;-85
2021/12/10 07:18:30;;;;;;;;;;;;;;;0.77;86.27;98383.25;5037828;28;19925;-85
2021/12/10 07:20:56;;;;;;;;;;;;;;;0.74;86.06;98380.91;5049948;28;19997;-85
2021/12/10 07:23:21;;;;;;;;;;;;;;;0.67;86.23;98378.06;5052326;28;19963;-85
2021/12/10 07:25:47;;;;;;;;;;;;;;;0.69;87.05;98383.13;5032969;28;20298;-85
2021/12/10 07:28:13;;;;;;;;;;;;;;;0.79;86.09;98387.34;5039261;28;19930;-85
2021/12/10 07:30:38;;;;;;;;;;;;;;;0.93;85.35;98382.63;5031069;28;20011;-85
2021/12/10 07:33:05;;;;;;;;;;;;;;;0.85;85.92;98385.94;5023046;28;19930;-86
2021/12/10 07:35:30;;;;;;;;;;;;;;;0.87;85.54;98373.63;5046904;28;19921;-85
2021/12/10 07:37:56;;;;;;;;;;;;;;;0.75;86.97;98366.97;5050217;28;19948;-85
2021/12/10 07:40:23;;;;;;;;;;;;;;;0.81;85.37;98361.16;5046954;28;19929;-85
2021/12/10 07:42:49;;;;;;;;;;;;;;;0.90;86.30;98373.31;5025943;28;20314;-85
2021/12/10 07:45:15;;;;;;;;;;;;;;;0.90;86.00;98364.69;5035449;28;19928;-86
2021/12/10 07:47:40;;;;;;;;;;;;;;;1.18;83.37;98358.53;5034924;28;19933;-86
2021/12/10 07:50:11;;;;;;;;;;;;;;;1.25;83.80;98356.19;5023239;28;19931;-85
2021/12/10 07:52:36;;;;;;;;;;;;;;;1.22;84.53;98346.06;5009959;28;19930;-84
2021/12/10 07:55:04;;;;;;;;;;;;;;;1.32;82.99;98341.59;5004775;28;19930;-87
2021/12/10 07:57:30;;;;;;;;;;;;;;;1.36;83.10;98337.75;5033634;28;19922;-85
2021/12/10 07:59:55;;;;;;;;;;;;;;;1.49;81.88;98350.41;5029050;28;19988;-85
2021/12/10 08:02:21;;;;;;;;;;;;;;;1.60;81.33;98331.16;5034924;28;19995;-85
2021/12/10 08:04:46;;;;;;;;;;;;;;;1.69;80.27;98346.72;5054363;28;19971;-85
2021/12/10 08:07:13;;;;;;;;;;;;;;;1.72;79.73;98337.78;5027739;28;19929;-86
2021/12/10 08:09:38;;;;;;;;;;;;;;;1.74;80.26;98338.44;5042224;28;19927;-85
2021/12/10 08:12:04;;;;;;;;;;;;;;;1.67;80.63;98337.41;5027238;28;19952;-86
2021/12/10 08:14:29;;;;;;;;;;;;;;;1.83;79.25;98347.13;5040849;28;19952;-87
2021/12/10 08:16:54;;;;;;;;;;;;;;;2.01;78.22;98344.53;5048769;28;20441;-85
2021/12/10 08:19:20;;;;;;;;;;;;;;;1.89;80.23;98352.56;5039849;28;19929;-85
2021/12/10 08:21:45;;;;;;;;;;;;;;;1.87;79.32;98348.47;5027415;28;19922;-86
2021/12/10 08:24:10;;;;;;;;;;;;;;;1.90;79.17;98362.00;5021872;28;19949;-85
2021/12/10 08:26:36;;;;;;;;;;;;;;;1.98;78.66;98358.69;5037425;28;19917;-84
2021/12/10 08:29:03;;;;;;;;;;;;;;;1.91;80.30;98361.06;5030130;28;20000;-85
2021/12/10 08:31:29;;;;;;;;;;;;;;;1.95;79.23;98345.94;5023763;28;20382;-85
2021/12/10 08:33:55;;;;;;;;;;;;;;;1.99;79.04;98355.09;5027814;28;19961;-84
2021/12/10 08:36:21;;;;;;;;;;;;;;;2.06;78.04;98363.13;5041731;28;19921;-86
2021/12/10 08:38:47;;;;;;;;;;;;;;;2.15;77.59;98356.22;5037913;28;19931;-84
2021/12/10 08:41:13;;;;;;;;;;;;;;;2.14;76.89;98357.97;5025214;28;19959;-86
2021/12/10 08:43:40;;;;;;;;;;;;;;;2.20;76.00;98351.34;5025983;28;19917;-84
2021/12/10 08:46:06;;;;;;;;;;;;;;;2.30;77.07;98370.31;5039469;28;19921;-85
2021/12/10 08:48:32;;;;;;;;;;;;;;;2.32;76.51;98371.81;5040234;28;19921;-84
2021/12/10 08:50:59;;;;;;;;;;;;;;;2.42;77.24;98368.28;5031177;28;19928;-85
2021/12/10 08:53:24;;;;;;;;;;;;;;;2.45;75.52;98362.75;5033872;28;19932;-85
2021/12/10 08:55:51;;;;;;;;;;;;;;;2.54;75.49;98360.03;5041133;28;19921;-85
2021/12/10 08:58:17;;;;;;;;;;;;;;;2.54;75.34;98367.06;5027655;28;19921;-86
2021/12/10 09:00:44;;;;;;;;;;;;;;;2.72;76.24;98361.78;5025060;28;19997;-84
2021/12/10 09:03:10;;;;;;;;;;;;;;;2.83;75.73;98363.31;5023967;28;19921;-84
2021/12/10 09:05:35;;;;;;;;;;;;;;;2.96;73.20;98348.84;5025660;28;19921;-84
2021/12/10 09:08:01;;;;;;;;;;;;;;;2.99;71.78;98342.50;5047330;28;20081;-85
2021/12/10 09:10:29;;;;;;;;;;;;;;;3.04;73.13;98348.06;5038501;28;19921;-86
2021/12/10 09:12:54;;;;;;;;;;;;;;;3.08;73.13;98348.56;5039840;28;19928;-85
2021/12/10 09:15:22;;;;;;;;;;;;;;;3.08;73.50;98344.16;5032002;28;20390;-85
2021/12/10 09:17:48;;;;;;;;;;;;;;;3.16;71.95;98338.16;5037852;28;19968;-85
2021/12/10 09:20:17;;;;;;;;;;;;;;;3.20;70.32;98342.09;5021730;28;19921;-85
2021/12/10 09:22:43;;;;;;;;;;;;;;;3.17;70.03;98327.56;5030327;28;19925;-85
2021/12/10 09:25:09;;;;;;;;;;;;;;;3.32;67.89;98332.16;5025328;28;19926;-84
2021/12/10 09:27:34;;;;;;;;;;;;;;;3.37;68.23;98324.66;5022000;28;19925;-86
2021/12/10 09:30:00;;;;;;;;;;;;;;;3.28;68.09;98315.97;5032334;28;20393;-84
2021/12/10 09:32:26;;;;;;;;;;;;;;;3.32;67.57;98319.91;5037896;28;19925;-87
2021/12/10 09:34:55;;;;;;;;;;;;;;;3.34;67.16;98311.94;5022813;28;20370;-84
2021/12/10 09:37:21;;;;;;;;;;;;;;;3.37;67.10;98311.59;5020531;28;19968;-88
2021/12/10 09:39:48;;;;;;;;;;;;;;;3.41;67.64;98305.09;5035210;28;19972;-85
2021/12/10 09:42:14;;;;;;;;;;;;;;;3.42;68.38;98300.66;5024609;28;19928;-85
2021/12/10 09:44:40;;;;;;;;;;;;;;;3.55;66.25;98301.00;5020377;28;19922;-85
2021/12/10 09:47:07;;;;;;;;;;;;;;;3.60;65.62;98290.91;5039607;28;19975;-86
2021/12/10 09:49:33;;;;;;;;;;;;;;;3.55;63.92;98277.47;5025578;28;20000;-85
2021/12/10 09:51:59;;;;;;;;;;;;;;;3.59;64.78;98281.41;5029625;28;19964;-87
2021/12/10 09:54:26;;;;;;;;;;;;;;;3.69;63.75;98284.69;5021978;28;20111;-83
2021/12/10 09:56:59;;;;;;;;;;;;;;;3.67;63.65;98280.59;5023304;28;19944;-85
2021/12/10 09:59:24;;;;;;;;;;;;;;;3.71;63.32;98297.59;5024343;28;19928;-85
2021/12/10 10:01:52;;;;;;;;;;;;;;;3.79;62.86;98292.34;5032095;28;19921;-85
2021/12/10 10:04:18;;;;;;;;;;;;;;;3.77;63.41;98289.91;5036289;28;19928;-87
2021/12/10 10:06:49;;;;;;;;;;;;;;;3.73;62.55;98285.19;5028375;28;19921;-85
2021/12/10 10:09:16;;;;;;;;;;;;;;;3.75;63.06;98278.00;5022448;28;20440;-85
2021/12/10 10:11:45;;;;;;;;;;;;;;;3.79;62.74;98271.44;5030080;28;20401;-86
2021/12/10 10:14:11;;;;;;;;;;;;;;;3.73;63.30;98266.88;5040313;28;19921;-85
2021/12/10 10:16:39;;;;;;;;;;;;;;;3.66;63.04;98265.91;5025500;28;20452;-86
2021/12/10 10:19:05;;;;;;;;;;;;;;;3.61;64.04;98272.44;5040185;28;20044;-85
2021/12/10 10:21:36;;;;;;;;;;;;;;;3.79;63.37;98274.06;5024966;28;19964;-85
2021/12/10 10:24:01;;;;;;;;;;;;;;;3.66;64.01;98265.91;5032459;28;19976;-85
2021/12/10 10:26:32;;;;;;;;;;;;;;;3.77;63.41;98278.66;5045658;28;19917;-86
2021/12/10 10:28:59;;;;;;;;;;;;;;;3.74;63.15;98260.66;5023543;28;19925;-85
2021/12/10 10:31:24;;;;;;;;;;;;;;;3.76;63.70;98267.34;5028948;28;19928;-86
2021/12/10 10:33:51;;;;;;;;;;;;;;;3.76;64.03;98271.78;5030495;28;19917;-84
2021/12/10 10:36:19;;;;;;;;;;;;;;;3.76;62.79;98269.16;5031426;28;19928;-85
2021/12/10 10:38:53;;;;;;;;;;;;;;;3.75;63.75;98262.31;5032359;28;19917;-86
2021/12/10 10:41:21;;;;;;;;;;;;;;;3.76;62.96;98256.09;5029706;28;19925;-85
2021/12/10 10:43:47;;;;;;;;;;;;;;;3.66;64.24;98263.28;5033505;28;19918;-86
2021/12/10 10:46:12;;;;;;;;;;;;;;;3.73;65.30;98259.03;5036273;28;20352;-87
2021/12/10 10:48:39;;;;;;;;;;;;;;;3.81;63.99;98261.63;5035129;28;19926;-85
2021/12/10 10:51:07;;;;;;;;;;;;;;;3.74;64.25;98253.66;5024781;28;20131;-85
2021/12/10 10:53:35;;;;;;;;;;;;;;;3.61;65.59;98259.34;5039919;28;19922;-85
2021/12/10 10:56:04;;;;;;;;;;;;;;;3.70;65.61;98251.53;5048016;28;19921;-84
2021/12/10 10:58:33;;;;;;;;;;;;;;;3.65;67.03;98253.81;5020955;28;19952;-84
2021/12/10 11:01:08;;;;;;;;;;;;;;;3.68;67.34;98249.06;5019665;28;19925;-85
2021/12/10 11:03:36;;;;;;;;;;;;;;;3.66;68.32;98255.44;5021781;28;19959;-85
2021/12/10 11:06:02;;;;;;;;;;;;;;;3.68;68.61;98254.31;5026410;28;19928;-86
2021/12/10 11:08:30;;;;;;;;;;;;;;;3.54;69.76;98258.38;5022361;28;19926;-85
2021/12/10 11:11:04;;;;;;;;;;;;;;;3.60;69.57;98252.50;5033286;28;19934;-87
2021/12/10 11:13:31;;;;;;;;;;;;;;;3.42;70.93;98251.84;5026407;28;19925;-87
2021/12/10 11:16:07;;;;;;;;;;;;;;;3.37;71.46;98251.53;5020631;28;19929;-86
2021/12/10 11:18:45;;;;;;;;;;;;;;;3.39;71.58;98250.38;5033245;28;19921;-87
2021/12/10 11:21:11;;;;;;;;;;;;;;;3.40;71.78;98245.97;5029649;28;19921;-87
2021/12/10 11:23:39;;;;;;;;;;;;;;;3.45;71.40;98240.25;5020999;28;19964;-87
2021/12/10 11:26:05;;;;;;;;;;;;;;;3.44;71.87;98244.66;5021475;28;19985;-85
2021/12/10 11:28:32;;;;;;;;;;;;;;;3.48;71.51;98238.16;5023690;28;20420;-87
2021/12/10 11:31:04;;;;;;;;;;;;;;;3.57;71.32;98236.34;5022683;28;19925;-87
2021/12/10 11:33:31;;;;;;;;;;;;;;;3.65;71.39;98238.13;5022119;28;19953;-87
2021/12/10 11:36:00;;;;;;;;;;;;;;;3.66;71.04;98248.41;5038363;28;19921;-86
2021/12/10 11:38:31;;;;;;;;;;;;;;;3.73;70.32;98240.75;5021828;28;19957;-87
2021/12/10 11:41:14;;;;;;;;;;;;;;;3.82;71.02;98237.97;5039026;28;19922;-86
2021/12/10 11:48:53;;;;;;;;;;;;;;;3.95;68.61;98215.72;5022883;28;19981;-87
2021/12/10 11:51:25;;;;;;;;;;;;;;;3.97;67.29;98213.75;5039053;28;19921;-87
2021/12/10 11:54:13;;;;;;;;;;;;;;;3.95;67.29;98208.69;5021743;28;20025;-86
2021/12/10 11:56:42;;;;;;;;;;;;;;;3.98;65.84;98202.31;5030915;28;19922;-86
2021/12/10 11:59:10;;;;;;;;;;;;;;;3.92;66.20;98203.78;5026988;28;19917;-86
2021/12/10 12:01:55;;;;;;;;;;;;;;;3.85;65.69;98197.59;5038998;28;19917;-86
2021/12/10 12:04:22;;;;;;;;;;;;;;;3.91;65.19;98191.72;5019008;28;19933;-87
2021/12/10 12:07:08;;;;;;;;;;;;;;;3.86;65.70;98193.19;5046283;28;19921;-85
2021/12/10 12:09:37;;;;;;;;;;;;;;;3.75;65.71;98199.59;5036801;28;20330;-85
2021/12/10 12:12:07;;;;;;;;;;;;;;;3.74;65.46;98185.72;5022764;28;20444;-86
2021/12/10 12:14:32;;;;;;;;;;;;;;;3.79;65.63;98182.56;5029960;28;19928;-86
2021/12/10 12:16:57;;;;;;;;;;;;;;;3.82;65.57;98177.84;5024289;28;20355;-87
2021/12/10 12:19:29;;;;;;;;;;;;;;;3.90;64.96;98181.41;5032640;28;19924;-86
2021/12/10 12:21:59;;;;;;;;;;;;;;;3.87;62.52;98169.50;5029896;28;20369;-85
2021/12/10 12:27:08;;;;;;;;;;;;;;;3.88;63.47;98165.88;5021336;28;20389;-85
2021/12/10 12:29:43;;;;;;;;;;;;;;;3.93;62.62;98174.06;5042269;28;19917;-86
2021/12/10 12:32:11;;;;;;;;;;;;;;;3.87;64.00;98164.25;5044143;28;20004;-84
2021/12/10 12:34:36;;;;;;;;;;;;;;;3.91;64.29;98167.34;5023675;28;19921;-87
2021/12/10 12:37:05;;;;;;;;;;;;;;;3.87;62.75;98164.25;5027624;28;19928;-87
2021/12/10 12:39:31;;;;;;;;;;;;;;;3.85;63.66;98155.78;5044329;28;19928;-85
2021/12/10 12:41:58;;;;;;;;;;;;;;;3.86;63.19;98169.66;5035154;28;19921;-85
2021/12/10 12:44:25;;;;;;;;;;;;;;;3.83;63.88;98168.19;5029922;28;19922;-87
2021/12/10 12:46:55;;;;;;;;;;;;;;;3.89;64.11;98169.34;5035219;28;19929;-87
2021/12/10 12:49:20;;;;;;;;;;;;;;;3.89;63.45;98170.16;5037002;28;19961;-86
2021/12/10 12:52:01;;;;;;;;;;;;;;;3.97;63.74;98177.97;5030116;28;19917;-87
2021/12/10 12:54:26;;;;;;;;;;;;;;;3.95;63.29;98174.69;5017193;28;20397;-87
2021/12/10 12:56:51;;;;;;;;;;;;;;;3.90;63.80;98176.19;5019879;28;19947;-85
2021/12/10 12:59:17;;;;;;;;;;;;;;;3.88;64.02;98175.53;5018769;28;19928;-85
2021/12/10 13:01:45;;;;;;;;;;;;;;;4.07;63.77;98179.56;5036036;28;19948;-86
2021/12/10 13:04:12;;;;;;;;;;;;;;;3.91;64.52;98175.19;5018506;28;20017;-86
2021/12/10 13:06:45;;;;;;;;;;;;;;;3.88;64.68;98181.56;5019873;28;19976;-85
2021/12/10 13:09:13;;;;;;;;;;;;;;;3.83;64.94;98183.88;5019718;28;19926;-87
2021/12/10 13:11:51;;;;;;;;;;;;;;;3.79;65.47;98180.78;5021623;28;19917;-85
2021/12/10 13:14:20;;;;;;;;;;;;;;;3.61;66.88;98186.19;5036375;28;19918;-84
2021/12/10 13:16:49;;;;;;;;;;;;;;;3.65;66.91;98188.47;5036606;28;19928;-87